USCGC Tern — NEOT — position and weather

sailwx.info

Track history (hours):
 
Tides and Currents Weather Stations Pressure Air Temp Water Temp Dewpoint Dewpoint Depression Visibility Wind Speed Wind Dir Waves Ship Positions

USCGC Tern

Last reported at 2017-Oct-18 15:23 UTC. Time now 2017-Nov-19 16:15 UTC.
Position N 34°18' W 120°09'.
Warning: this ship's position is 32 days out of date.

Length 26 m; draft 1.7 m.

Type: SAR. MMSI: 366999711.

Date/timePositionNaut miles runAvg speedWind from/ knotsBaromVisibWave heightAir tempDewpointWater temp
2017-Oct-18 15:23N 34°18' W 120°09'197 9.3
2017-Oct-17 18:11N 37°04' W 122°21'520.6
2017-Oct-17 17:57N 37°07' W 122°25'920.1
2017-Oct-17 17:30N 37°16' W 122°29'919.0
2017-Oct-17 17:00N 37°25' W 122°32'1019.5
2017-Oct-17 16:30N 37°34' W 122°34'  
2017-Oct-08 23:26N 37°49' W 122°22'1 3.3
2017-Oct-08 23:00N 37°49' W 122°23'1 2.0
2017-Oct-08 22:30N 37°49' W 122°25'0 0.6
2017-Oct-08 22:00N 37°49' W 122°24'0 0.1
2017-Oct-08 21:30N 37°49' W 122°24'0 0.8
2017-Oct-08 21:00N 37°49' W 122°25'1 2.2
2017-Oct-08 20:30N 37°49' W 122°26'1 2.4
2017-Oct-08 20:00N 37°49' W 122°25'0 0.9
2017-Oct-08 19:30N 37°49' W 122°25'1 2.1
2017-Oct-08 19:00N 37°49' W 122°27'2 4.3
2017-Oct-08 18:30N 37°49' W 122°24'2 3.3
2017-Oct-08 18:00N 37°49' W 122°22'0 0.0
2017-Oct-08 17:30N 37°49' W 122°22'0 0.0
2017-Oct-08 17:00N 37°49' W 122°22'0 0.0
2017-Oct-08 16:30N 37°49' W 122°22'0 0.0
2017-Oct-08 16:00N 37°49' W 122°22'  
Track history (hours):
 
Tides and Currents Weather Stations Pressure Air Temp Water Temp Dewpoint Dewpoint Depression Visibility Wind Speed Wind Dir Waves Ship Positions

USCGC Tern

Last reported at 2017-Oct-18 15:23 UTC. Time now 2017-Nov-19 16:15 UTC.
Position N 34°18' W 120°09'.
Warning: this ship's position is 32 days out of date.

Length 26 m; draft 1.7 m.

Type: SAR. MMSI: 366999711.

Date/timePositionNaut miles runAvg speedWind from/ knotsBaromVisibWave heightAir tempDewpointWater temp
2017-Oct-18 15:23N 34°18' W 120°09'197 9.3
2017-Oct-17 18:11N 37°04' W 122°21'520.6
2017-Oct-17 17:57N 37°07' W 122°25'920.1
2017-Oct-17 17:30N 37°16' W 122°29'919.0
2017-Oct-17 17:00N 37°25' W 122°32'1019.5
2017-Oct-17 16:30N 37°34' W 122°34'  
2017-Oct-08 23:26N 37°49' W 122°22'1 3.3
2017-Oct-08 23:00N 37°49' W 122°23'1 2.0
2017-Oct-08 22:30N 37°49' W 122°25'0 0.6
2017-Oct-08 22:00N 37°49' W 122°24'0 0.1
2017-Oct-08 21:30N 37°49' W 122°24'0 0.8
2017-Oct-08 21:00N 37°49' W 122°25'1 2.2
2017-Oct-08 20:30N 37°49' W 122°26'1 2.4
2017-Oct-08 20:00N 37°49' W 122°25'0 0.9
2017-Oct-08 19:30N 37°49' W 122°25'1 2.1
2017-Oct-08 19:00N 37°49' W 122°27'2 4.3
2017-Oct-08 18:30N 37°49' W 122°24'2 3.3
2017-Oct-08 18:00N 37°49' W 122°22'0 0.0
2017-Oct-08 17:30N 37°49' W 122°22'0 0.0
2017-Oct-08 17:00N 37°49' W 122°22'0 0.0
2017-Oct-08 16:30N 37°49' W 122°22'0 0.0
2017-Oct-08 16:00N 37°49' W 122°22'  

Dump ship's entire track history